createdAt,value
2023-03-02T00:07:26.598Z,2.4
2023-03-02T00:22:26.612Z,2.5
2023-03-02T00:27:26.614Z,2.4
2023-03-02T00:32:26.969Z,2.2
2023-03-02T00:37:26.616Z,2.3
2023-03-02T00:42:26.627Z,2.2
2023-03-02T01:07:28.198Z,2.1
2023-03-02T01:17:26.652Z,2.2
2023-03-02T01:27:26.648Z,2.3
2023-03-02T01:32:26.735Z,2.2
2023-03-02T01:37:26.658Z,2.1
2023-03-02T01:47:26.629Z,2.2
2023-03-02T01:57:26.670Z,2.1
2023-03-02T02:07:26.641Z,2.2
2023-03-02T02:12:26.655Z,2.1
2023-03-02T02:22:26.629Z,2.0
2023-03-02T02:42:26.635Z,1.9
2023-03-02T02:52:26.690Z,1.8
2023-03-02T03:07:26.673Z,1.7
2023-03-02T03:12:26.691Z,1.6
2023-03-02T03:17:26.648Z,1.7
2023-03-02T03:22:26.625Z,1.8
2023-03-02T03:27:26.665Z,1.7
2023-03-02T03:32:26.718Z,1.8
2023-03-02T03:37:26.654Z,1.7
2023-03-02T03:42:26.644Z,1.4
2023-03-02T03:47:26.665Z,1.8
2023-03-02T03:52:26.655Z,1.5
2023-03-02T03:57:26.654Z,1.3
2023-03-02T04:02:26.745Z,1.5
2023-03-02T04:07:26.666Z,1.4
2023-03-02T04:17:26.652Z,1.2
2023-03-02T04:22:26.685Z,1.3
2023-03-02T04:42:26.694Z,1.2
2023-03-02T04:47:26.869Z,1.1
2023-03-02T04:52:26.674Z,1.3
2023-03-02T04:57:26.689Z,1.4
2023-03-02T05:02:26.761Z,1.2
2023-03-02T05:22:26.663Z,1.1
2023-03-02T05:32:26.720Z,0.9
2023-03-02T05:37:26.692Z,1.1
2023-03-02T05:42:26.672Z,1.0
2023-03-02T05:52:26.762Z,0.9
2023-03-02T06:07:26.666Z,0.8
2023-03-02T06:12:26.708Z,0.9
2023-03-02T06:17:26.683Z,0.7
2023-03-02T06:32:26.783Z,0.9
2023-03-02T06:37:26.710Z,0.8
2023-03-02T06:42:26.684Z,0.7
2023-03-02T06:47:26.714Z,0.8
2023-03-02T07:02:26.698Z,0.9
2023-03-02T07:07:26.709Z,1.0
2023-03-02T07:12:26.708Z,1.2
2023-03-02T07:17:26.701Z,1.0
2023-03-02T07:22:26.733Z,1.2
2023-03-02T07:32:26.813Z,1.1
2023-03-02T07:42:26.701Z,1.0
2023-03-02T07:47:26.704Z,1.2
2023-03-02T07:52:26.696Z,1.3
2023-03-02T07:57:26.705Z,1.4
2023-03-02T08:07:26.707Z,1.5
2023-03-02T08:12:26.700Z,1.6
2023-03-02T08:17:26.798Z,1.8
2023-03-02T08:22:26.726Z,2.0
2023-03-02T08:27:26.698Z,1.9
2023-03-02T08:32:26.791Z,1.8
2023-03-02T08:37:26.711Z,1.9
2023-03-02T08:42:27.852Z,2.0
2023-03-02T08:47:26.726Z,2.1
2023-03-02T08:52:26.740Z,2.4
2023-03-02T09:02:26.726Z,2.6
2023-03-02T09:07:26.712Z,2.8
2023-03-02T09:12:26.703Z,2.7
2023-03-02T09:27:26.738Z,2.9
2023-03-02T09:37:26.727Z,3.5
2023-03-02T09:42:38.132Z,3.6
2023-03-02T09:47:34.833Z,3.9
2023-03-02T09:52:26.713Z,3.8
2023-03-02T09:57:26.708Z,4.3
2023-03-02T10:02:26.734Z,4.6
2023-03-02T10:07:26.732Z,6.5
2023-03-02T10:12:26.731Z,8.4
2023-03-02T10:17:26.757Z,8.6
2023-03-02T10:22:26.751Z,9.4
2023-03-02T10:27:26.744Z,9.6
2023-03-02T10:32:26.773Z,9.9
2023-03-02T10:37:26.744Z,9.7
2023-03-02T10:42:26.871Z,10.0
2023-03-02T10:47:26.760Z,10.4
2023-03-02T10:52:26.726Z,9.5
2023-03-02T10:57:26.723Z,10.0
2023-03-02T11:02:26.771Z,9.8
2023-03-02T11:12:26.718Z,10.0
2023-03-02T11:17:26.771Z,10.6
2023-03-02T11:22:26.735Z,9.3
2023-03-02T11:27:26.735Z,9.9
2023-03-02T11:32:26.858Z,9.8
2023-03-02T11:37:26.759Z,8.7
2023-03-02T11:42:26.792Z,9.2
2023-03-02T11:47:26.842Z,8.3
2023-03-02T11:52:26.763Z,8.8
2023-03-02T11:57:26.736Z,9.4
2023-03-02T12:07:26.806Z,10.1
2023-03-02T12:12:26.829Z,10.2
2023-03-02T12:17:26.783Z,10.4
2023-03-02T12:27:26.929Z,10.8
2023-03-02T12:32:26.851Z,10.3
2023-03-02T12:37:26.765Z,11.3
2023-03-02T12:42:26.754Z,11.5
2023-03-02T12:47:27.241Z,10.7
2023-03-02T12:52:26.928Z,9.7
2023-03-02T12:57:26.776Z,9.2
2023-03-02T13:02:26.778Z,9.0
2023-03-02T13:07:26.759Z,8.0
2023-03-02T13:12:26.783Z,8.2
2023-03-02T13:17:26.786Z,8.0
2023-03-02T13:22:26.788Z,7.9
2023-03-02T13:32:26.832Z,8.1
2023-03-02T13:37:26.767Z,8.2
2023-03-02T13:42:26.758Z,8.3
2023-03-02T13:47:26.781Z,9.0
2023-03-02T13:52:26.773Z,8.5
2023-03-02T13:57:26.772Z,8.9
2023-03-02T14:02:26.786Z,9.3
2023-03-02T14:07:26.786Z,10.0
2023-03-02T14:17:26.777Z,10.4
2023-03-02T14:22:26.823Z,11.0
2023-03-02T14:27:26.779Z,10.8
2023-03-02T14:32:26.879Z,10.5
2023-03-02T14:37:26.790Z,10.3
2023-03-02T14:42:26.769Z,10.9
2023-03-02T14:47:26.791Z,10.8
2023-03-02T14:52:26.793Z,10.6
2023-03-02T14:57:26.791Z,12.6
2023-03-02T15:02:27.277Z,12.1
2023-03-02T15:07:26.842Z,12.8
2023-03-02T15:12:26.806Z,12.1
2023-03-02T15:17:26.794Z,11.1
2023-03-02T15:22:26.808Z,11.2
2023-03-02T15:32:26.908Z,11.9
2023-03-02T15:37:27.009Z,11.4
2023-03-02T15:42:26.789Z,10.3
2023-03-02T15:47:26.777Z,9.4
2023-03-02T15:52:26.818Z,10.1
2023-03-02T16:02:26.778Z,9.2
2023-03-02T16:07:26.806Z,8.7
2023-03-02T16:12:26.817Z,8.3
2023-03-02T16:22:26.798Z,8.2
2023-03-02T16:32:26.855Z,8.1
2023-03-02T16:37:26.867Z,8.0
2023-03-02T16:42:26.859Z,7.9
2023-03-02T16:52:26.801Z,7.7
2023-03-02T17:07:26.838Z,7.4
2023-03-02T17:12:26.831Z,7.3
2023-03-02T17:17:26.824Z,7.0
2023-03-02T17:22:26.834Z,6.7
2023-03-02T17:27:26.855Z,6.8
2023-03-02T17:37:26.838Z,6.7
2023-03-02T17:42:26.815Z,6.4
2023-03-02T17:47:26.832Z,6.3
2023-03-02T17:52:26.838Z,6.1
2023-03-02T18:02:26.850Z,6.0
2023-03-02T18:07:26.816Z,5.9
2023-03-02T18:12:26.845Z,5.8
2023-03-02T18:17:26.823Z,5.7
2023-03-02T18:27:26.881Z,5.5
2023-03-02T18:37:26.852Z,5.3
2023-03-02T18:47:26.834Z,5.1
2023-03-02T18:52:26.839Z,5.0
2023-03-02T19:02:26.858Z,4.9
2023-03-02T19:12:26.863Z,4.8
2023-03-02T19:22:26.849Z,4.7
2023-03-02T19:27:26.851Z,4.6
2023-03-02T19:32:26.939Z,4.5
2023-03-02T19:37:26.850Z,4.7
2023-03-02T19:47:26.844Z,4.6
2023-03-02T19:52:26.880Z,4.5
2023-03-02T19:57:26.856Z,4.4
2023-03-02T20:07:26.884Z,4.2
2023-03-02T20:22:26.881Z,4.3
2023-03-02T20:27:26.870Z,4.2
2023-03-02T20:32:26.944Z,4.1
2023-03-02T20:37:26.897Z,4.0
2023-03-02T20:42:26.861Z,4.1
2023-03-02T20:47:26.859Z,4.2
2023-03-02T20:52:26.895Z,4.0
2023-03-02T21:02:26.876Z,4.1
2023-03-02T21:07:26.915Z,4.0
2023-03-02T21:12:26.889Z,3.8
2023-03-02T21:22:26.864Z,3.7
2023-03-02T21:37:26.903Z,3.4
2023-03-02T21:42:26.914Z,3.6
2023-03-02T21:47:26.893Z,3.7
2023-03-02T21:52:26.888Z,3.5
2023-03-02T21:57:26.910Z,3.6
2023-03-02T22:02:26.893Z,3.8
2023-03-02T22:07:26.876Z,3.5
2023-03-02T22:12:26.878Z,3.3
2023-03-02T22:17:26.892Z,3.5
2023-03-02T22:22:26.911Z,3.7
2023-03-02T22:27:26.902Z,3.8
2023-03-02T22:37:26.920Z,3.7
2023-03-02T22:47:26.917Z,3.5
2023-03-02T22:52:26.927Z,3.7
2023-03-02T22:57:27.046Z,3.5
2023-03-02T23:07:26.922Z,3.2
2023-03-02T23:12:26.911Z,3.4
2023-03-02T23:22:26.913Z,3.5
2023-03-02T23:27:26.954Z,3.2
2023-03-02T23:37:26.902Z,2.9
2023-03-02T23:42:26.894Z,3.0
2023-03-02T23:47:26.896Z,2.7
2023-03-02T23:52:26.938Z,2.6
2023-03-02T23:57:26.937Z,2.8
